Nearby METAR Reports

KLWM - Lawrence,MA, USA
Distance from station: NE 12mi, 19km
Updated: Sat, 04-Apr-2020 6:54pm EDT
Overcast
Overcast
 Wind from ESE
Wind: ESE 8 mph , 13 km/h
Temperature: 46°F , 8°C
Wind Chill: 42°F , 6°C
Dew Point: 36°F , 2°C
Humidity: 66%
Barometer: 30.03 inHg , 1016.9 hPa
Clouds: Overcast
Visibility: 10 miles , 16 km
Cloud details: Mostly Cloudy 5000 ft
Overcast 6500 ft
2020/04/04 22:54 KLWM 042254Z 12007KT 10SM BKN050 OVC065 08/02 A3003 RMK AO2 SLP168 T00780022
KBED - Bedford,MA, USA
Distance from station: SSE 12mi, 19km
Updated: Sat, 04-Apr-2020 7:51pm EDT
Mostly Cloudy
Mostly Cloudy
 Wind from SE
Wind: SE 7 mph , 11 km/h
Temperature: 43°F , 6°C
Wind Chill: 39°F , 4°C
Dew Point: 34°F , 1°C
Humidity: 71%
Barometer: 30.01 inHg , 1016.3 hPa
Clouds: Mostly Cloudy
Visibility: 10 miles , 16 km
Cloud details: Mostly Cloudy 6500 ft
2020/04/04 23:51 KBED 042351Z 13006KT 10SM BKN065 06/01 A3001 RMK AO2 SLP177 T00610011 10122 20061 53012

Metar display script from Saratoga-Weather.org